createdAt,value
2018-09-11T00:00:12.220Z,37.84
2018-09-11T00:01:12.224Z,38.32
2018-09-11T00:02:12.231Z,37.94
2018-09-11T00:03:12.235Z,37.94
2018-09-11T00:04:12.242Z,37.74
2018-09-11T00:05:12.244Z,37.94
2018-09-11T00:06:12.249Z,37.74
2018-09-11T00:07:12.256Z,37.94
2018-09-11T00:08:12.260Z,37.94
2018-09-11T00:09:12.263Z,38.04
2018-09-11T00:10:12.271Z,37.94
2018-09-11T00:11:12.277Z,37.94
2018-09-11T00:12:12.280Z,37.84
2018-09-11T00:13:12.284Z,37.74
2018-09-11T00:14:12.289Z,38.13
2018-09-11T00:15:12.303Z,37.94
2018-09-11T00:16:12.304Z,37.94
2018-09-11T00:17:12.305Z,37.94
2018-09-11T00:18:12.308Z,37.74
2018-09-11T00:19:12.313Z,37.84
2018-09-11T00:20:12.327Z,37.74
2018-09-11T00:21:12.328Z,37.84
2018-09-11T00:22:12.331Z,38.13
2018-09-11T00:23:12.332Z,37.84
2018-09-11T00:24:12.339Z,37.84
2018-09-11T00:25:12.351Z,38.13
2018-09-11T00:26:12.353Z,37.84
2018-09-11T00:27:12.353Z,38.23
2018-09-11T00:28:12.357Z,38.13
2018-09-11T00:29:12.361Z,38.23
2018-09-11T00:30:12.367Z,38.13
2018-09-11T00:31:12.382Z,37.74
2018-09-11T00:32:12.379Z,38.32
2018-09-11T00:33:12.381Z,37.74
2018-09-11T00:34:12.388Z,37.84
2018-09-11T00:35:12.393Z,38.32
2018-09-11T00:36:12.397Z,38.52
2018-09-11T00:37:12.401Z,38.13
2018-09-11T00:38:12.407Z,38.42
2018-09-11T00:39:12.411Z,38.23
2018-09-11T00:40:12.416Z,38.42
2018-09-11T00:41:12.420Z,38.23
2018-09-11T00:42:12.427Z,38.32
2018-09-11T00:43:12.431Z,38.42
2018-09-11T00:44:12.437Z,38.52
2018-09-11T00:45:12.441Z,38.52
2018-09-11T00:46:12.454Z,38.23
2018-09-11T00:47:12.451Z,38.42
2018-09-11T00:48:12.459Z,37.74
2018-09-11T00:49:12.461Z,37.84
2018-09-11T00:50:12.465Z,38.13
2018-09-11T00:51:12.486Z,38.13
2018-09-11T00:52:12.477Z,38.52
2018-09-11T00:53:12.481Z,38.23
2018-09-11T00:54:12.486Z,38.32
2018-09-11T00:55:12.491Z,38.52
2018-09-11T00:56:12.495Z,38.42
2018-09-11T00:57:12.500Z,38.23
2018-09-11T00:58:12.505Z,38.23
2018-09-11T00:59:12.512Z,38.32
2018-09-11T01:00:12.515Z,38.32
2018-09-11T01:01:12.521Z,38.52
2018-09-11T01:02:12.526Z,38.32
2018-09-11T01:03:12.530Z,38.23
2018-09-11T01:04:12.535Z,38.32
2018-09-11T01:05:12.539Z,38.13
2018-09-11T01:06:12.545Z,38.32
2018-09-11T01:07:12.550Z,38.04
2018-09-11T01:08:12.555Z,38.42
2018-09-11T01:09:12.561Z,38.32
2018-09-11T01:10:12.627Z,38.42
2018-09-11T01:11:12.567Z,38.62
2018-09-11T01:12:12.577Z,38.52
2018-09-11T01:13:12.579Z,38.32
2018-09-11T01:14:12.585Z,37.94
2018-09-11T01:15:12.590Z,38.23
2018-09-11T01:16:12.605Z,38.13
2018-09-11T01:17:12.598Z,38.13
2018-09-11T01:18:12.604Z,38.04
2018-09-11T01:19:12.609Z,38.13
2018-09-11T01:20:12.614Z,38.32
2018-09-11T01:21:12.619Z,38.13
2018-09-11T01:22:12.624Z,38.32
2018-09-11T01:23:12.628Z,38.32
2018-09-11T01:24:12.633Z,38.32
2018-09-11T01:25:12.641Z,38.23
2018-09-11T01:26:12.643Z,38.23
2018-09-11T01:27:12.648Z,38.13
2018-09-11T01:28:12.653Z,38.42
2018-09-11T01:29:12.678Z,38.23
2018-09-11T01:30:12.666Z,38.23
2018-09-11T01:31:12.666Z,38.32
2018-09-11T01:32:12.672Z,38.13
2018-09-11T01:33:12.677Z,38.32
2018-09-11T01:34:12.682Z,38.23
2018-09-11T01:35:12.688Z,38.13
2018-09-11T01:36:12.691Z,38.13
2018-09-11T01:37:12.696Z,38.42
2018-09-11T01:38:12.705Z,38.13
2018-09-11T01:39:12.709Z,38.32
2018-09-11T01:40:12.713Z,38.13
2018-09-11T01:41:12.715Z,38.23
2018-09-11T01:42:12.722Z,38.13
2018-09-11T01:43:12.727Z,38.04
2018-09-11T01:44:12.732Z,38.32
2018-09-11T01:45:12.738Z,38.23
2018-09-11T01:46:12.741Z,37.94
2018-09-11T01:47:12.747Z,38.13
2018-09-11T01:48:12.753Z,38.23
2018-09-11T01:49:12.756Z,38.23
2018-09-11T01:50:12.762Z,38.04
2018-09-11T01:51:12.768Z,38.04
2018-09-11T01:52:12.770Z,38.04
2018-09-11T01:53:12.778Z,38.23
2018-09-11T01:54:12.781Z,38.13
2018-09-11T01:55:12.787Z,38.23
2018-09-11T01:56:12.791Z,38.23
2018-09-11T01:57:12.796Z,38.23
2018-09-11T01:58:12.804Z,38.23
2018-09-11T01:59:12.806Z,38.23
2018-09-11T02:00:12.813Z,38.23
2018-09-11T02:01:12.816Z,38.32
2018-09-11T02:02:12.823Z,38.13
2018-09-11T02:03:12.829Z,37.94
2018-09-11T02:04:12.832Z,38.13
2018-09-11T02:05:12.840Z,38.13
2018-09-11T02:06:12.848Z,38.04
2018-09-11T02:07:12.847Z,38.04
2018-09-11T02:08:12.852Z,38.32
2018-09-11T02:09:12.855Z,38.04
2018-09-11T02:10:12.861Z,38.04
2018-09-11T02:11:12.873Z,38.32
2018-09-11T02:12:12.872Z,38.13
2018-09-11T02:13:12.879Z,38.42
2018-09-11T02:14:12.886Z,38.31
2018-09-11T02:15:12.888Z,38.42
2018-09-11T02:16:12.888Z,38.32
2018-09-11T02:17:12.895Z,38.40
2018-09-11T02:18:12.900Z,38.62
2018-09-11T02:19:12.905Z,38.62
2018-09-11T02:20:12.910Z,38.71
2018-09-11T02:21:12.914Z,38.52
2018-09-11T02:22:12.920Z,38.60
2018-09-11T02:23:12.925Z,38.52
2018-09-11T02:24:12.940Z,38.70
2018-09-11T02:25:12.935Z,38.71
2018-09-11T02:26:12.948Z,38.70
2018-09-11T02:27:12.945Z,38.71
2018-09-11T02:28:12.952Z,38.70
2018-09-11T02:29:12.954Z,39.18
2018-09-11T02:30:12.959Z,39.08
2018-09-11T02:31:12.975Z,38.99
2018-09-11T02:32:12.969Z,39.01
2018-09-11T02:33:12.977Z,38.99
2018-09-11T02:34:12.979Z,38.89
2018-09-11T02:35:12.986Z,38.79
2018-09-11T02:36:12.991Z,38.89
2018-09-11T02:37:13.001Z,38.89
2018-09-11T02:38:12.999Z,39.08
2018-09-11T02:39:13.005Z,38.89
2018-09-11T02:40:13.009Z,39.28
2018-09-11T02:41:13.014Z,39.08
2018-09-11T02:42:13.018Z,39.08
2018-09-11T02:43:13.023Z,39.08
2018-09-11T02:44:13.028Z,39.18
2018-09-11T02:45:13.033Z,39.37
2018-09-11T02:46:13.037Z,39.37
2018-09-11T02:47:13.042Z,39.28
2018-09-11T02:48:13.047Z,39.37
2018-09-11T02:49:13.052Z,39.67
2018-09-11T02:50:13.057Z,39.67
2018-09-11T02:51:13.061Z,39.86
2018-09-11T02:52:13.068Z,39.47
2018-09-11T02:53:13.070Z,39.67
2018-09-11T02:54:13.077Z,39.57
2018-09-11T02:55:13.081Z,39.67
2018-09-11T02:56:13.093Z,39.67
2018-09-11T02:57:13.097Z,39.47
2018-09-11T02:58:13.094Z,39.76
2018-09-11T02:59:13.100Z,40.05
2018-09-11T03:00:13.104Z,39.76
2018-09-11T03:01:13.113Z,39.76
2018-09-11T03:02:13.113Z,39.86
2018-09-11T03:03:13.116Z,39.76
2018-09-11T03:04:13.123Z,39.95
2018-09-11T03:05:13.131Z,40.15
2018-09-11T03:06:13.134Z,40.05
2018-09-11T03:07:13.145Z,39.95
2018-09-11T03:08:13.143Z,39.95
2018-09-11T03:09:13.147Z,39.95
2018-09-11T03:10:13.152Z,40.05
2018-09-11T03:11:13.160Z,40.44
2018-09-11T03:12:13.164Z,40.44
2018-09-11T03:13:13.166Z,40.44
2018-09-11T03:14:13.173Z,40.25
2018-09-11T03:15:13.175Z,40.34
2018-09-11T03:16:13.180Z,40.34
2018-09-11T03:17:13.185Z,40.33
2018-09-11T03:18:13.189Z,40.42
2018-09-11T03:19:13.194Z,40.34
2018-09-11T03:20:13.200Z,40.25
2018-09-11T03:21:13.204Z,40.25
2018-09-11T03:22:13.209Z,40.33
2018-09-11T03:23:13.213Z,40.23
2018-09-11T03:24:13.218Z,40.34
2018-09-11T03:25:13.222Z,40.23
2018-09-11T03:26:13.227Z,40.23
2018-09-11T03:27:13.232Z,40.23
2018-09-11T03:28:13.237Z,40.33
2018-09-11T03:29:13.242Z,40.13
2018-09-11T03:30:13.247Z,40.23
2018-09-11T03:31:13.251Z,40.03
2018-09-11T03:32:13.264Z,40.42
2018-09-11T03:33:13.260Z,40.33
2018-09-11T03:34:13.264Z,40.23
2018-09-11T03:35:13.271Z,40.03
2018-09-11T03:36:13.276Z,40.03
2018-09-11T03:37:13.281Z,40.23
2018-09-11T03:38:13.284Z,40.23
2018-09-11T03:39:13.288Z,40.33
2018-09-11T03:40:13.301Z,40.33
2018-09-11T03:41:13.320Z,40.42
2018-09-11T03:42:13.302Z,40.52
2018-09-11T03:43:13.308Z,40.23
2018-09-11T03:44:13.329Z,40.03
2018-09-11T03:45:13.318Z,40.03
2018-09-11T03:46:13.335Z,40.52
2018-09-11T03:47:13.325Z,40.52
2018-09-11T03:48:13.332Z,40.23
2018-09-11T03:49:13.335Z,40.52
2018-09-11T03:50:13.343Z,40.61
2018-09-11T03:51:13.347Z,40.42
2018-09-11T03:52:13.349Z,40.61
2018-09-11T03:53:13.353Z,40.42
2018-09-11T03:54:13.358Z,40.52
2018-09-11T03:55:13.372Z,40.42
2018-09-11T03:56:13.379Z,40.52
2018-09-11T03:57:13.396Z,40.52
2018-09-11T03:58:13.376Z,40.61
2018-09-11T03:59:13.446Z,40.52
2018-09-11T04:00:13.390Z,41.10
2018-09-11T04:01:13.404Z,41.00
2018-09-11T04:02:13.395Z,40.71
2018-09-11T04:03:13.402Z,41.00
2018-09-11T04:04:13.404Z,40.71
2018-09-11T04:05:13.409Z,40.52
2018-09-11T04:06:13.421Z,40.71
2018-09-11T04:07:13.419Z,40.71
2018-09-11T04:08:13.423Z,40.61
2018-09-11T04:09:13.428Z,40.52
2018-09-11T04:10:13.442Z,40.52
2018-09-11T04:11:13.437Z,40.61
2018-09-11T04:12:13.446Z,40.52
2018-09-11T04:13:13.457Z,40.61
2018-09-11T04:14:13.450Z,40.71
2018-09-11T04:15:13.455Z,40.61
2018-09-11T04:16:13.462Z,40.52
2018-09-11T04:17:13.467Z,40.42
2018-09-11T04:18:13.469Z,40.23
2018-09-11T04:19:13.473Z,40.42
2018-09-11T04:20:13.478Z,41.00
2018-09-11T04:21:13.484Z,40.42
2018-09-11T04:22:13.493Z,40.52
2018-09-11T04:23:13.492Z,40.52
2018-09-11T04:24:13.497Z,40.52
2018-09-11T04:25:13.502Z,40.52
2018-09-11T04:26:13.514Z,40.42
2018-09-11T04:27:13.512Z,40.42
2018-09-11T04:28:13.519Z,40.42
2018-09-11T04:29:13.521Z,40.52
2018-09-11T04:30:13.524Z,40.52
2018-09-11T04:31:13.544Z,40.52
2018-09-11T04:32:13.535Z,40.23
2018-09-11T04:33:13.538Z,40.42
2018-09-11T04:34:13.543Z,40.52
2018-09-11T04:35:13.548Z,40.33
2018-09-11T04:36:13.567Z,40.52
2018-09-11T04:37:13.556Z,40.52
2018-09-11T04:38:13.563Z,41.00
2018-09-11T04:39:13.566Z,40.71
2018-09-11T04:40:13.575Z,40.81
2018-09-11T04:41:13.574Z,40.81
2018-09-11T04:42:13.579Z,40.61
2018-09-11T04:43:13.597Z,41.00
2018-09-11T04:44:13.591Z,41.10
2018-09-11T04:45:13.593Z,40.81
2018-09-11T04:46:13.606Z,41.10
2018-09-11T04:47:13.602Z,40.91
2018-09-11T04:48:13.607Z,40.91
2018-09-11T04:49:13.611Z,41.00
2018-09-11T04:50:13.616Z,40.83
2018-09-11T04:51:13.624Z,41.00
2018-09-11T04:52:13.625Z,40.92
2018-09-11T04:53:13.630Z,40.73
2018-09-11T04:54:13.634Z,41.12
2018-09-11T04:55:13.640Z,40.73
2018-09-11T04:56:13.665Z,40.44
2018-09-11T04:57:13.658Z,40.44
2018-09-11T04:58:13.653Z,40.54
2018-09-11T04:59:13.658Z,40.44
2018-09-11T05:00:13.666Z,40.44
2018-09-11T05:01:13.668Z,40.34
2018-09-11T05:02:13.672Z,40.15
2018-09-11T05:03:13.677Z,40.54
2018-09-11T05:04:13.682Z,40.34
2018-09-11T05:05:13.689Z,40.34
2018-09-11T05:06:13.689Z,40.34
2018-09-11T05:07:13.696Z,40.34
2018-09-11T05:08:13.702Z,40.44
2018-09-11T05:09:13.705Z,40.25
2018-09-11T05:10:13.710Z,40.25
2018-09-11T05:11:13.730Z,40.25
2018-09-11T05:12:13.722Z,40.54
2018-09-11T05:13:13.737Z,39.88
2018-09-11T05:14:13.734Z,40.34
2018-09-11T05:15:13.736Z,40.56
2018-09-11T05:16:13.740Z,39.69
2018-09-11T05:17:13.744Z,39.69
2018-09-11T05:18:13.749Z,39.98
2018-09-11T05:19:13.872Z,39.88
2018-09-11T05:20:13.759Z,39.88
2018-09-11T05:21:13.765Z,39.98
2018-09-11T05:22:13.768Z,39.98
2018-09-11T05:23:13.773Z,39.69
2018-09-11T05:24:13.778Z,39.39
2018-09-11T05:25:13.783Z,39.78
2018-09-11T05:26:13.790Z,39.69
2018-09-11T05:27:13.796Z,39.88
2018-09-11T05:28:13.799Z,39.49
2018-09-11T05:29:13.803Z,39.39
2018-09-11T05:30:13.806Z,39.39
2018-09-11T05:31:13.813Z,39.20
2018-09-11T05:32:13.818Z,39.01
2018-09-11T05:33:13.832Z,39.20
2018-09-11T05:34:13.882Z,39.11
2018-09-11T05:35:13.833Z,39.01
2018-09-11T05:36:13.838Z,38.91
2018-09-11T05:37:13.843Z,39.20
2018-09-11T05:38:13.850Z,39.03
2018-09-11T05:39:13.852Z,39.03
2018-09-11T05:40:13.858Z,39.03
2018-09-11T05:41:13.884Z,39.03
2018-09-11T05:42:13.867Z,39.12
2018-09-11T05:43:13.873Z,39.12
2018-09-11T05:44:13.878Z,39.03
2018-09-11T05:45:13.882Z,39.22
2018-09-11T05:46:13.890Z,38.93
2018-09-11T05:47:13.904Z,38.93
2018-09-11T05:48:13.899Z,39.03
2018-09-11T05:49:13.902Z,39.03
2018-09-11T05:50:13.908Z,39.41
2018-09-11T05:51:13.913Z,39.32
2018-09-11T05:52:13.919Z,39.22
2018-09-11T05:53:13.927Z,39.03
2018-09-11T05:54:13.928Z,38.73
2018-09-11T05:55:13.934Z,38.73
2018-09-11T05:56:13.945Z,38.64
2018-09-11T05:57:13.944Z,38.73
2018-09-11T05:58:13.999Z,38.64
2018-09-11T05:59:13.958Z,38.73
2018-09-11T06:00:13.961Z,38.64
2018-09-11T06:01:13.973Z,38.46
2018-09-11T06:02:13.971Z,38.75
2018-09-11T06:03:13.976Z,38.73
2018-09-11T06:04:13.980Z,38.34
2018-09-11T06:05:13.987Z,38.56
2018-09-11T06:06:13.991Z,38.46
2018-09-11T06:07:13.999Z,38.75
2018-09-11T06:08:14.001Z,38.65
2018-09-11T06:09:14.007Z,38.65
2018-09-11T06:10:14.011Z,38.17
2018-09-11T06:11:14.014Z,38.56
2018-09-11T06:12:14.022Z,38.37
2018-09-11T06:13:14.028Z,38.56
2018-09-11T06:14:14.039Z,38.17
2018-09-11T06:15:14.039Z,38.46
2018-09-11T06:16:14.138Z,38.46
2018-09-11T06:17:14.049Z,38.56
2018-09-11T06:18:14.059Z,38.46
2018-09-11T06:19:14.061Z,38.46
2018-09-11T06:20:14.065Z,38.37
2018-09-11T06:21:14.080Z,38.37
2018-09-11T06:22:14.076Z,38.75
2018-09-11T06:23:14.080Z,38.46
2018-09-11T06:24:14.086Z,38.46
2018-09-11T06:25:14.095Z,38.37
2018-09-11T06:26:14.097Z,38.56
2018-09-11T06:27:14.102Z,38.56
2018-09-11T06:28:14.107Z,38.46
2018-09-11T06:29:14.134Z,38.65
2018-09-11T06:30:14.117Z,38.37
2018-09-11T06:31:14.121Z,38.75
2018-09-11T06:32:14.137Z,38.37
2018-09-11T06:33:14.135Z,38.56
2018-09-11T06:34:14.192Z,38.56
2018-09-11T06:35:14.148Z,38.56
2018-09-11T06:36:14.153Z,38.56
2018-09-11T06:37:14.155Z,38.46
2018-09-11T06:38:14.160Z,38.56
2018-09-11T06:39:14.175Z,38.37
2018-09-11T06:40:14.172Z,38.37
2018-09-11T06:41:14.179Z,39.14
2018-09-11T06:42:14.181Z,38.67
2018-09-11T06:43:14.188Z,38.75
2018-09-11T06:44:14.196Z,38.85
2018-09-11T06:45:14.198Z,38.65
2018-09-11T06:46:14.204Z,38.46
2018-09-11T06:47:14.210Z,38.56
2018-09-11T06:48:14.215Z,38.67
2018-09-11T06:49:14.220Z,38.67
2018-09-11T06:50:14.225Z,38.75
2018-09-11T06:51:14.233Z,38.48
2018-09-11T06:52:14.236Z,38.56
2018-09-11T06:53:14.241Z,38.65
2018-09-11T06:54:14.246Z,38.67
2018-09-11T06:55:14.252Z,38.57
2018-09-11T06:56:14.259Z,38.77
2018-09-11T06:57:14.262Z,39.06
2018-09-11T06:58:14.269Z,39.62
2018-09-11T06:59:14.273Z,39.26
2018-09-11T07:00:14.289Z,38.87
2018-09-11T07:01:14.292Z,38.67
2018-09-11T07:02:14.292Z,38.67
2018-09-11T07:03:14.296Z,38.77
2018-09-11T07:04:14.301Z,38.77
2018-09-11T07:05:14.306Z,38.96
2018-09-11T07:06:14.312Z,38.67
2018-09-11T07:07:14.320Z,39.06
2018-09-11T07:08:14.323Z,39.16
2018-09-11T07:09:14.328Z,39.26
2018-09-11T07:10:14.334Z,39.16
2018-09-11T07:11:14.340Z,39.16
2018-09-11T07:12:14.346Z,39.06
2018-09-11T07:13:14.350Z,39.16
2018-09-11T07:14:14.355Z,39.06
2018-09-11T07:15:14.367Z,39.16
2018-09-11T07:16:14.373Z,39.06
2018-09-11T07:17:14.372Z,39.16
2018-09-11T07:18:14.380Z,39.16
2018-09-11T07:19:14.384Z,39.16
2018-09-11T07:20:14.850Z,39.26
2018-09-11T07:21:14.394Z,39.06
2018-09-11T07:22:14.402Z,39.06
2018-09-11T07:23:14.405Z,39.06
2018-09-11T07:24:14.476Z,39.06
2018-09-11T07:25:14.417Z,39.06
2018-09-11T07:26:14.502Z,39.16
2018-09-11T07:27:14.432Z,39.45
2018-09-11T07:28:14.434Z,39.06
2018-09-11T07:29:14.441Z,39.26
2018-09-11T07:30:14.464Z,39.45
2018-09-11T07:31:14.450Z,39.45
2018-09-11T07:32:14.462Z,39.45
2018-09-11T07:33:14.461Z,39.45
2018-09-11T07:34:14.465Z,39.45
2018-09-11T07:35:14.472Z,39.55
2018-09-11T07:36:14.542Z,39.45
2018-09-11T07:37:14.483Z,39.36
2018-09-11T07:38:14.486Z,39.36
2018-09-11T07:39:14.497Z,39.45
2018-09-11T07:40:14.500Z,39.94
2018-09-11T07:41:14.503Z,40.03
2018-09-11T07:42:14.510Z,39.55
2018-09-11T07:43:14.520Z,39.84
2018-09-11T07:44:14.527Z,39.55
2018-09-11T07:45:14.529Z,39.75
2018-09-11T07:46:14.533Z,39.75
2018-09-11T07:47:14.542Z,39.75
2018-09-11T07:48:14.546Z,39.75
2018-09-11T07:49:14.552Z,39.55
2018-09-11T07:50:14.559Z,39.62
2018-09-11T07:51:14.561Z,39.84
2018-09-11T07:52:14.566Z,39.84
2018-09-11T07:53:14.571Z,39.72
2018-09-11T07:54:14.579Z,39.84
2018-09-11T07:55:14.582Z,39.82
2018-09-11T07:56:14.603Z,39.82
2018-09-11T07:57:14.603Z,39.92
2018-09-11T07:58:14.604Z,39.62
2018-09-11T07:59:14.615Z,39.62
2018-09-11T08:00:14.616Z,40.01
2018-09-11T08:01:14.616Z,39.92
2018-09-11T08:02:14.623Z,40.01
2018-09-11T08:03:14.669Z,40.01
2018-09-11T08:04:14.634Z,40.01
2018-09-11T08:05:14.706Z,39.92
2018-09-11T08:06:14.656Z,39.92
2018-09-11T08:07:14.648Z,39.92
2018-09-11T08:08:14.656Z,40.01
2018-09-11T08:09:14.660Z,39.92
2018-09-11T08:10:14.665Z,39.82
2018-09-11T08:11:14.671Z,40.01
2018-09-11T08:12:14.684Z,40.01
2018-09-11T08:13:14.680Z,39.94
2018-09-11T08:14:14.686Z,39.92
2018-09-11T08:15:14.702Z,39.94
2018-09-11T08:16:14.716Z,40.23
2018-09-11T08:17:14.702Z,40.21
2018-09-11T08:18:14.708Z,40.13
2018-09-11T08:19:14.713Z,39.75
2018-09-11T08:20:14.723Z,39.82
2018-09-11T08:21:14.724Z,39.75
2018-09-11T08:22:14.729Z,39.75
2018-09-11T08:23:14.738Z,40.03
2018-09-11T08:24:14.740Z,39.55
2018-09-11T08:25:14.745Z,39.36
2018-09-11T08:26:14.764Z,39.75
2018-09-11T08:27:14.756Z,39.65
2018-09-11T08:28:14.773Z,39.55
2018-09-11T08:29:14.833Z,39.36
2018-09-11T08:30:14.774Z,39.45
2018-09-11T08:31:14.779Z,39.16
2018-09-11T08:32:14.786Z,39.16
2018-09-11T08:33:14.790Z,39.36
2018-09-11T08:34:14.797Z,39.06
2018-09-11T08:35:14.804Z,39.16
2018-09-11T08:36:14.808Z,39.36
2018-09-11T08:37:14.811Z,39.36
2018-09-11T08:38:14.817Z,39.06
2018-09-11T08:39:14.825Z,39.36
2018-09-11T08:40:14.829Z,39.16
2018-09-11T08:41:14.834Z,39.26
2018-09-11T08:42:14.839Z,39.16
2018-09-11T08:43:14.850Z,39.16
2018-09-11T08:44:14.852Z,38.96
2018-09-11T08:45:14.860Z,38.87
2018-09-11T08:46:14.862Z,39.16
2018-09-11T08:47:14.868Z,39.06
2018-09-11T08:48:14.874Z,41.10
2018-09-11T08:49:14.877Z,41.30
2018-09-11T08:50:14.883Z,41.88
2018-09-11T08:51:14.893Z,42.76
2018-09-11T08:52:14.962Z,41.78
2018-09-11T08:53:14.900Z,40.03
2018-09-11T08:54:14.906Z,40.03
2018-09-11T08:55:14.912Z,39.84
2018-09-11T08:56:14.918Z,39.36
2018-09-11T08:57:14.924Z,39.16
2018-09-11T08:58:14.927Z,39.26
2018-09-11T08:59:14.934Z,39.26
2018-09-11T09:00:14.940Z,39.06
2018-09-11T09:01:14.947Z,39.16
2018-09-11T09:02:14.954Z,38.96
2018-09-11T09:03:14.968Z,38.96
2018-09-11T09:04:14.962Z,39.08
2018-09-11T09:05:14.968Z,39.06
2018-09-11T09:06:14.977Z,39.16
2018-09-11T09:07:14.978Z,38.96
2018-09-11T09:08:14.986Z,39.18
2018-09-11T09:09:14.994Z,39.16
2018-09-11T09:10:14.995Z,39.06
2018-09-11T09:11:15.005Z,39.08
2018-09-11T09:12:15.007Z,39.16
2018-09-11T09:13:15.011Z,39.06
2018-09-11T09:14:15.018Z,39.37
2018-09-11T09:15:15.025Z,39.06
2018-09-11T09:16:15.027Z,39.18
2018-09-11T09:17:15.034Z,39.28
2018-09-11T09:18:15.039Z,39.18
2018-09-11T09:19:15.047Z,39.16
2018-09-11T09:20:15.051Z,39.26
2018-09-11T09:21:15.057Z,39.37
2018-09-11T09:22:15.062Z,38.79
2018-09-11T09:23:15.068Z,39.16
2018-09-11T09:24:15.075Z,39.26
2018-09-11T09:25:15.079Z,39.36
2018-09-11T09:26:15.084Z,38.89
2018-09-11T09:27:15.103Z,38.79
2018-09-11T09:28:15.098Z,38.98
2018-09-11T09:29:15.100Z,38.50
2018-09-11T09:30:15.111Z,38.89
2018-09-11T09:31:15.114Z,38.79
2018-09-11T09:32:15.131Z,38.79
2018-09-11T09:33:15.128Z,38.70
2018-09-11T09:34:15.140Z,38.70
2018-09-11T09:35:15.136Z,38.57
2018-09-11T09:36:15.141Z,38.70
2018-09-11T09:37:15.147Z,38.70
2018-09-11T09:38:15.154Z,38.60
2018-09-11T09:39:15.160Z,38.70
2018-09-11T09:40:15.165Z,38.70
2018-09-11T09:41:15.177Z,38.60
2018-09-11T09:42:15.176Z,38.70
2018-09-11T09:43:15.181Z,38.60
2018-09-11T09:44:15.190Z,38.50
2018-09-11T09:45:15.194Z,38.31
2018-09-11T09:46:15.203Z,38.40
2018-09-11T09:47:15.207Z,38.70
2018-09-11T09:48:15.214Z,38.50
2018-09-11T09:49:15.216Z,38.40
2018-09-11T09:50:15.223Z,38.50
2018-09-11T09:51:15.227Z,38.40
2018-09-11T09:52:15.233Z,38.21
2018-09-11T09:53:15.238Z,38.60
2018-09-11T09:54:15.244Z,38.31
2018-09-11T09:55:15.255Z,37.82
2018-09-11T09:56:15.257Z,38.23
2018-09-11T09:57:15.261Z,38.21
2018-09-11T09:58:15.266Z,38.01
2018-09-11T09:59:15.273Z,38.11
2018-09-11T10:00:15.280Z,38.21
2018-09-11T10:01:15.290Z,37.72
2018-09-11T10:02:15.290Z,37.92
2018-09-11T10:03:15.304Z,37.72
2018-09-11T10:04:15.302Z,37.52
2018-09-11T10:05:15.307Z,37.52
2018-09-11T10:06:15.313Z,37.43
2018-09-11T10:07:15.324Z,37.52
2018-09-11T10:08:15.327Z,37.62
2018-09-11T10:09:15.329Z,37.14
2018-09-11T10:10:15.336Z,37.14
2018-09-11T10:11:15.376Z,37.72
2018-09-11T10:12:15.352Z,37.43
2018-09-11T10:13:15.354Z,37.52
2018-09-11T10:14:15.362Z,37.04
2018-09-11T10:15:15.365Z,37.14
2018-09-11T10:16:15.371Z,37.34
2018-09-11T10:17:15.377Z,37.14
2018-09-11T10:18:15.384Z,37.34
2018-09-11T10:19:15.389Z,36.94
2018-09-11T10:20:15.395Z,36.94
2018-09-11T10:21:15.401Z,36.65
2018-09-11T10:22:15.410Z,36.94
2018-09-11T10:23:15.412Z,37.04
2018-09-11T10:24:15.419Z,36.67
2018-09-11T10:25:15.425Z,36.75
2018-09-11T10:26:15.429Z,36.75
2018-09-11T10:27:15.484Z,36.75
2018-09-11T10:28:15.440Z,36.75
2018-09-11T10:29:15.448Z,36.65
2018-09-11T10:30:15.453Z,36.85
2018-09-11T10:31:15.464Z,36.85
2018-09-11T10:32:15.470Z,36.75
2018-09-11T10:33:15.470Z,36.85
2018-09-11T10:34:15.477Z,36.55
2018-09-11T10:35:15.482Z,36.65
2018-09-11T10:36:15.490Z,36.85
2018-09-11T10:37:15.493Z,36.85
2018-09-11T10:38:15.502Z,36.85
2018-09-11T10:39:15.510Z,36.85
2018-09-11T10:40:15.513Z,36.46
2018-09-11T10:41:15.514Z,36.57
2018-09-11T10:42:15.524Z,36.46
2018-09-11T10:43:15.530Z,36.26
2018-09-11T10:44:15.542Z,36.47
2018-09-11T10:45:15.542Z,36.75
2018-09-11T10:46:15.546Z,36.38
2018-09-11T10:47:15.553Z,36.18
2018-09-11T10:48:15.559Z,35.99
2018-09-11T10:49:15.563Z,35.60
2018-09-11T10:50:15.572Z,35.99
2018-09-11T10:51:15.577Z,35.68
2018-09-11T10:52:15.582Z,36.08
2018-09-11T10:53:15.586Z,35.80
2018-09-11T10:54:15.593Z,35.80
2018-09-11T10:55:15.599Z,35.78
2018-09-11T10:56:15.605Z,36.18
2018-09-11T10:57:15.610Z,35.97
2018-09-11T10:58:15.655Z,35.80
2018-09-11T10:59:15.626Z,35.80
2018-09-11T11:00:15.676Z,35.80
2018-09-11T11:01:15.634Z,35.89
2018-09-11T11:02:15.642Z,35.89
2018-09-11T11:03:15.646Z,35.80
2018-09-11T11:04:15.653Z,35.89
2018-09-11T11:05:15.657Z,36.08
2018-09-11T11:06:15.665Z,35.41
2018-09-11T11:07:15.670Z,35.80
2018-09-11T11:08:15.677Z,35.80
2018-09-11T11:09:15.681Z,35.99
2018-09-11T11:10:15.687Z,35.99
2018-09-11T11:11:15.696Z,35.70
2018-09-11T11:12:15.698Z,35.70
2018-09-11T11:13:15.704Z,35.50
2018-09-11T11:14:15.714Z,35.68
2018-09-11T11:15:15.717Z,35.97
2018-09-11T11:16:15.728Z,35.70
2018-09-11T11:17:15.728Z,35.31
2018-09-11T11:18:15.734Z,35.60
2018-09-11T11:19:15.742Z,35.50
2018-09-11T11:20:15.746Z,35.78
2018-09-11T11:21:15.760Z,35.41
2018-09-11T11:22:15.765Z,35.50
2018-09-11T11:23:15.764Z,35.70
2018-09-11T11:24:15.770Z,35.78
2018-09-11T11:25:15.776Z,35.31
2018-09-11T11:26:15.781Z,35.80
2018-09-11T11:27:15.793Z,35.21
2018-09-11T11:28:15.793Z,35.41
2018-09-11T11:29:15.798Z,35.80
2018-09-11T11:30:15.805Z,35.80
2018-09-11T11:31:15.811Z,35.70
2018-09-11T11:32:15.853Z,35.70
2018-09-11T11:33:15.822Z,35.60
2018-09-11T11:34:15.826Z,35.11
2018-09-11T11:35:15.835Z,35.60
2018-09-11T11:36:15.881Z,35.31
2018-09-11T11:37:16.117Z,35.21
2018-09-11T11:38:15.852Z,35.50
2018-09-11T11:39:15.858Z,35.21
2018-09-11T11:40:15.865Z,35.21
2018-09-11T11:41:15.869Z,35.99
2018-09-11T11:42:15.947Z,35.50
2018-09-11T11:43:15.905Z,35.50
2018-09-11T11:44:15.888Z,35.21
2018-09-11T11:45:15.893Z,35.21
2018-09-11T11:46:15.902Z,35.11
2018-09-11T11:47:15.905Z,34.92
2018-09-11T11:48:15.976Z,35.02
2018-09-11T11:49:15.916Z,35.11
2018-09-11T11:50:15.925Z,35.11
2018-09-11T11:51:15.928Z,35.02
2018-09-11T11:52:15.936Z,35.02
2018-09-11T11:53:15.939Z,35.02
2018-09-11T11:54:15.946Z,35.02
2018-09-11T11:55:16.061Z,34.82
2018-09-11T11:56:15.956Z,35.21
2018-09-11T11:57:15.964Z,34.82
2018-09-11T11:58:15.970Z,34.82
2018-09-11T11:59:15.974Z,34.92
2018-09-11T12:00:15.982Z,34.92
2018-09-11T12:01:15.988Z,35.02
2018-09-11T12:02:15.996Z,34.82
2018-09-11T12:03:16.000Z,34.92
2018-09-11T12:04:16.007Z,35.02
2018-09-11T12:05:16.013Z,34.43
2018-09-11T12:06:16.017Z,34.53
2018-09-11T12:07:16.025Z,34.24
2018-09-11T12:08:16.030Z,34.43
2018-09-11T12:09:16.039Z,34.24
2018-09-11T12:10:16.042Z,33.86
2018-09-11T12:11:16.047Z,33.77
2018-09-11T12:12:16.055Z,33.85
2018-09-11T12:13:16.071Z,34.05
2018-09-11T12:14:16.065Z,34.05
2018-09-11T12:15:16.070Z,33.58
2018-09-11T12:16:16.094Z,33.56
2018-09-11T12:17:16.081Z,33.38
2018-09-11T12:18:16.092Z,33.28
2018-09-11T12:19:16.097Z,33.28
2018-09-11T12:20:16.102Z,33.38
2018-09-11T12:21:16.113Z,32.99
2018-09-11T12:22:16.116Z,33.36
2018-09-11T12:23:16.122Z,33.36
2018-09-11T12:24:16.126Z,33.18
2018-09-11T12:25:16.131Z,33.67
2018-09-11T12:26:16.163Z,33.58
2018-09-11T12:27:16.144Z,32.99
2018-09-11T12:28:16.151Z,33.18
2018-09-11T12:29:16.156Z,33.28
2018-09-11T12:30:16.162Z,33.28
2018-09-11T12:31:16.249Z,32.89
2018-09-11T12:32:16.180Z,32.70
2018-09-11T12:33:16.179Z,32.60
2018-09-11T12:34:16.191Z,32.99
2018-09-11T12:35:16.196Z,32.60
2018-09-11T12:36:16.199Z,32.60
2018-09-11T12:37:16.207Z,32.60
2018-09-11T12:38:16.214Z,32.70
2018-09-11T12:39:16.217Z,32.60
2018-09-11T12:40:16.223Z,32.21
2018-09-11T12:41:16.229Z,32.60
2018-09-11T12:42:16.235Z,32.60
2018-09-11T12:43:16.241Z,32.79
2018-09-11T12:44:16.247Z,32.60
2018-09-11T12:45:16.253Z,32.70
2018-09-11T12:46:16.419Z,32.31
2018-09-11T12:47:16.544Z,32.70
2018-09-11T12:48:16.760Z,32.40
2018-09-11T12:49:16.283Z,32.40
2018-09-11T12:50:16.285Z,32.02
2018-09-11T12:51:16.292Z,31.92
2018-09-11T12:52:16.297Z,32.02